Time;durP1;ratioP1;P1;durP2;ratioP2;P2;SDS_P1;SDS_P2;PMS_P1;PMS_P2;Temp;Humidity;BMP_temperature;BMP_pressure;BME280_temperature;BME280_humidity;BME280_pressure;Samples;Min_cycle;Max_cycle;Signal;HPM_P1;HPM_P2
2022/05/06 00:02:05;;;;;;;8.80;5.40;;;12.60;95.90;;;;;;5010879;28;20538;-78
2022/05/06 00:04:30;;;;;;;9.43;5.47;;;12.50;96.00;;;;;;5011015;28;20073;-77
2022/05/06 00:06:56;;;;;;;7.87;5.50;;;12.50;96.10;;;;;;5010901;28;20022;-77
2022/05/06 00:09:23;;;;;;;9.20;5.50;;;12.60;96.20;;;;;;5010972;28;20033;-77
2022/05/06 00:11:49;;;;;;;10.73;5.20;;;12.50;96.60;;;;;;5010979;28;20431;-77
2022/05/06 00:14:15;;;;;;;9.53;5.93;;;12.50;96.50;;;;;;5011047;28;20087;-77
2022/05/06 00:16:40;;;;;;;9.00;5.47;;;12.50;96.50;;;;;;5010637;28;20022;-77
2022/05/06 00:19:06;;;;;;;8.67;5.43;;;12.50;96.60;;;;;;5010863;28;20091;-77
2022/05/06 00:21:32;;;;;;;8.93;5.70;;;12.50;96.70;;;;;;5010910;28;20038;-77
2022/05/06 00:23:57;;;;;;;10.87;5.90;;;12.40;96.70;;;;;;5011054;28;20053;-77
2022/05/06 00:26:23;;;;;;;10.37;6.13;;;12.40;96.70;;;;;;5010658;28;20073;-77
2022/05/06 00:28:49;;;;;;;7.83;5.33;;;12.40;96.80;;;;;;5010644;28;20026;-77
2022/05/06 00:31:14;;;;;;;9.40;5.70;;;12.30;96.80;;;;;;5013268;28;20061;-77
2022/05/06 00:33:40;;;;;;;10.80;6.00;;;12.30;96.70;;;;;;5014400;28;20036;-77
2022/05/06 00:36:07;;;;;;;9.93;5.80;;;12.30;96.80;;;;;;5014485;28;20037;-77
2022/05/06 00:38:33;;;;;;;9.53;5.87;;;12.20;96.90;;;;;;4996716;28;20053;-77
2022/05/06 00:40:59;;;;;;;11.60;6.00;;;12.20;97.10;;;;;;5014460;28;20152;-77
2022/05/06 00:43:25;;;;;;;9.33;5.80;;;12.20;97.20;;;;;;5014223;28;20505;-77
2022/05/06 00:45:53;;;;;;;10.33;5.90;;;12.10;97.40;;;;;;4996548;28;20556;-77
2022/05/06 00:48:23;;;;;;;11.37;5.43;;;12.10;97.40;;;;;;5013914;28;20038;-78
2022/05/06 00:50:50;;;;;;;7.57;5.37;;;12.00;97.60;;;;;;5014344;28;20033;-77
2022/05/06 00:53:17;;;;;;;10.23;5.60;;;12.00;97.70;;;;;;5014112;28;20026;-77
2022/05/06 00:55:43;;;;;;;9.97;5.50;;;12.00;97.80;;;;;;4996497;28;20030;-77
2022/05/06 00:58:09;;;;;;;9.83;6.17;;;12.00;98.00;;;;;;5013797;28;20539;-77
2022/05/06 01:00:35;;;;;;;7.87;5.50;;;12.00;98.00;;;;;;5013928;28;20034;-77
2022/05/06 01:03:01;;;;;;;10.90;5.93;;;12.00;98.00;;;;;;5013808;28;20026;-77
2022/05/06 01:05:28;;;;;;;8.40;5.60;;;11.90;98.10;;;;;;4996262;28;20026;-78
2022/05/06 01:07:54;;;;;;;10.90;6.10;;;11.90;98.20;;;;;;5013582;28;20030;-77
2022/05/06 01:10:21;;;;;;;10.07;5.53;;;11.90;98.20;;;;;;4996303;28;20107;-77
2022/05/06 01:12:48;;;;;;;9.73;5.87;;;11.90;98.30;;;;;;5013608;28;20022;-77
2022/05/06 01:15:24;;;;;;;10.47;5.83;;;11.80;98.30;;;;;;4996171;28;20422;-77
2022/05/06 01:17:57;;;;;;;8.87;6.27;;;11.80;98.40;;;;;;4995798;28;20569;-77
2022/05/06 01:20:24;;;;;;;8.57;6.03;;;11.80;98.40;;;;;;5013868;28;20561;-77
2022/05/06 01:22:52;;;;;;;8.83;6.10;;;11.80;98.50;;;;;;5013439;28;20482;-77
2022/05/06 01:25:20;;;;;;;9.43;6.07;;;11.80;98.50;;;;;;4995881;28;20029;-77
2022/05/06 01:28:00;;;;;;;10.43;5.83;;;11.70;98.50;;;;;;4995554;28;20033;-77
2022/05/06 01:30:37;;;;;;;9.23;5.73;;;11.70;98.60;;;;;;4996081;28;20037;-77
2022/05/06 01:33:11;;;;;;;9.97;5.70;;;11.80;98.60;;;;;;4995805;28;20018;-77
2022/05/06 01:35:46;;;;;;;9.70;6.37;;;11.80;98.50;;;;;;5013465;28;20064;-77
2022/05/06 01:38:34;;;;;;;11.50;6.13;;;11.70;98.30;;;;;;4995582;28;20399;-77
2022/05/06 01:41:03;;;;;;;8.55;6.25;;;11.70;98.60;;;;;;4995912;28;20116;-77
2022/05/06 01:43:39;;;;;;;10.80;6.67;;;11.70;98.60;;;;;;4979834;28;20037;-77
2022/05/06 01:46:06;;;;;;;9.50;6.20;;;11.60;98.60;;;;;;4995443;28;20030;-77
2022/05/06 01:48:36;;;;;;;9.90;6.50;;;11.60;98.80;;;;;;4995279;28;20398;-78
2022/05/06 01:51:03;;;;;;;10.48;6.45;;;11.50;99.10;;;;;;4995512;28;20026;-77
2022/05/06 01:53:33;;;;;;;11.60;6.33;;;11.50;98.90;;;;;;4979785;28;20026;-77
2022/05/06 01:55:59;;;;;;;10.60;6.63;;;11.60;99.00;;;;;;4995297;28;20100;-77
2022/05/06 01:58:31;;;;;;;21.73;7.13;;;11.50;99.00;;;;;;4995137;28;20033;-77
2022/05/06 02:01:03;;;;;;;10.30;6.50;;;11.60;99.10;;;;;;4995302;28;20037;-77
2022/05/06 02:06:19;;;;;;;10.17;6.43;;;11.60;99.20;;;;;;4995355;28;20057;-77
2022/05/06 02:08:51;;;;;;;10.33;5.93;;;11.60;99.20;;;;;;4995129;28;20034;-77
2022/05/06 02:11:22;;;;;;;11.33;6.60;;;11.60;99.10;;;;;;4994906;28;20080;-77
2022/05/06 02:13:48;;;;;;;9.80;6.10;;;11.60;99.20;;;;;;4995122;28;20502;-77
2022/05/06 02:16:32;;;;;;;10.10;6.00;;;11.50;99.20;;;;;;4994826;28;20034;-77
2022/05/06 02:19:30;;;;;;;9.10;6.33;;;11.50;99.30;;;;;;4979304;28;20069;-78
2022/05/06 02:22:27;;;;;;;11.50;6.70;;;11.50;99.20;;;;;;4994855;28;20490;-77
2022/05/06 02:25:13;;;;;;;10.67;7.10;;;11.50;99.20;;;;;;4998234;28;20041;-77
2022/05/06 02:27:47;;;;;;;12.90;6.80;;;11.50;99.20;;;;;;4994555;28;20032;-77
2022/05/06 02:33:23;;;;;;;10.60;6.70;;;11.40;99.10;;;;;;4994566;28;20022;-77
2022/05/06 02:35:58;;;;;;;11.23;6.37;;;11.40;99.20;;;;;;4994771;28;20033;-77
2022/05/06 02:38:28;;;;;;;11.33;6.60;;;11.40;99.30;;;;;;4994237;28;20037;-77
2022/05/06 02:40:56;;;;;;;12.03;6.67;;;11.30;99.40;;;;;;4994573;28;20030;-77
2022/05/06 02:43:24;;;;;;;11.33;6.83;;;11.30;99.40;;;;;;4994267;28;20030;-77
2022/05/06 02:45:52;;;;;;;11.90;6.53;;;11.30;99.50;;;;;;4994501;28;20032;-77
2022/05/06 02:48:19;;;;;;;11.10;6.40;;;11.20;99.50;;;;;;4994093;28;20026;-77
2022/05/06 02:50:45;;;;;;;11.30;6.37;;;11.20;99.60;;;;;;5012063;28;20054;-77
2022/05/06 02:53:11;;;;;;;9.63;6.40;;;11.10;99.70;;;;;;5011601;28;20033;-77
2022/05/06 02:55:38;;;;;;;12.63;7.00;;;11.10;99.60;;;;;;5012003;28;20033;-77
2022/05/06 02:58:06;;;;;;;11.63;6.77;;;11.00;99.70;;;;;;4994040;28;20033;-77
2022/05/06 03:00:32;;;;;;;11.43;7.43;;;11.00;99.80;;;;;;4994309;28;20030;-77
2022/05/06 03:03:01;;;;;;;12.20;7.18;;;11.10;99.80;;;;;;4994198;28;20029;-77
2022/05/06 03:05:29;;;;;;;12.48;6.75;;;11.10;99.80;;;;;;4994013;28;20494;-77
2022/05/06 03:07:58;;;;;;;11.95;7.10;;;11.10;99.80;;;;;;4993827;28;20478;-77
2022/05/06 03:10:27;;;;;;;13.80;7.00;;;11.10;99.60;;;;;;4994113;28;20030;-77
2022/05/06 03:12:58;;;;;;;11.13;7.20;;;11.10;99.50;;;;;;4993855;28;20088;-77
2022/05/06 03:15:24;;;;;;;11.53;7.50;;;11.00;99.70;;;;;;4993967;28;20037;-77
2022/05/06 03:18:00;;;;;;;12.27;7.33;;;11.10;99.70;;;;;;4993617;28;20124;-77
2022/05/06 03:20:26;;;;;;;12.87;7.30;;;11.10;99.70;;;;;;5011576;28;20564;-77
2022/05/06 03:22:53;;;;;;;13.30;7.77;;;11.00;99.80;;;;;;5011395;28;20041;-77
2022/05/06 03:25:20;;;;;;;13.90;7.90;;;10.90;99.80;;;;;;4993861;28;20049;-77
2022/05/06 03:30:32;;;;;;;12.03;7.70;;;11.00;99.90;;;;;;5011461;28;20058;-77
2022/05/06 03:33:16;;;;;;;13.53;8.20;;;10.90;99.90;;;;;;5011301;28;20030;-77
2022/05/06 03:35:43;;;;;;;14.23;8.30;;;10.90;99.90;;;;;;4977765;28;20493;-77
2022/05/06 03:38:09;;;;;;;14.23;7.97;;;10.90;99.90;;;;;;4993475;28;20152;-77
2022/05/06 03:40:39;;;;;;;13.27;8.27;;;11.00;99.90;;;;;;4978208;28;20517;-77
2022/05/06 03:43:06;;;;;;;13.20;8.30;;;10.90;99.90;;;;;;4993416;28;20030;-77
2022/05/06 03:45:36;;;;;;;13.67;7.93;;;11.00;99.90;;;;;;4993804;28;20526;-77
2022/05/06 03:48:02;;;;;;;15.97;8.83;;;11.00;99.90;;;;;;4993499;28;20057;-77
2022/05/06 03:53:18;;;;;;;15.83;10.03;;;10.90;99.90;;;;;;4993333;28;20482;-77
2022/05/06 03:55:47;;;;;;;16.17;9.43;;;10.80;99.90;;;;;;4993656;28;20091;-77
2022/05/06 03:58:13;;;;;;;15.50;9.50;;;10.80;99.90;;;;;;4993162;28;20116;-77
2022/05/06 04:00:40;;;;;;;13.57;8.40;;;10.80;99.90;;;;;;4993567;28;20041;-77
2022/05/06 04:03:08;;;;;;;14.30;8.70;;;10.80;99.90;;;;;;4993515;28;20040;-77
2022/05/06 04:05:35;;;;;;;12.97;8.40;;;10.80;99.80;;;;;;4995002;28;20083;-77
2022/05/06 04:08:03;;;;;;;12.10;8.13;;;10.70;99.90;;;;;;4996995;28;20033;-77
2022/05/06 04:10:29;;;;;;;11.63;7.90;;;10.70;99.90;;;;;;5015062;28;20025;-77
2022/05/06 04:12:57;;;;;;;13.57;8.43;;;10.60;99.90;;;;;;4997247;28;20026;-77
2022/05/06 04:15:23;;;;;;;11.80;7.80;;;10.60;99.90;;;;;;4997397;28;20034;-77
2022/05/06 04:17:50;;;;;;;12.00;8.07;;;10.50;99.90;;;;;;4996959;28;20034;-77
2022/05/06 04:25:49;;;;;;;13.43;8.23;;;10.60;99.90;;;;;;4997036;28;20034;-77
2022/05/06 04:28:17;;;;;;;14.77;8.37;;;10.60;99.90;;;;;;4996817;28;20033;-77
2022/05/06 04:30:46;;;;;;;14.80;9.30;;;10.70;99.90;;;;;;4996992;28;20022;-77
2022/05/06 04:33:14;;;;;;;15.63;8.73;;;10.60;99.90;;;;;;4996792;28;20026;-77
2022/05/06 04:35:44;;;;;;;15.35;9.60;;;10.60;99.90;;;;;;4997015;28;20304;-77
2022/05/06 04:38:12;;;;;;;17.48;9.32;;;10.60;99.90;;;;;;4996507;28;20120;-77
2022/05/06 04:40:40;;;;;;;15.70;9.00;;;10.60;99.90;;;;;;4996787;28;20036;-77
2022/05/06 04:43:10;;;;;;;14.40;8.97;;;10.60;99.90;;;;;;4996769;28;20235;-77
2022/05/06 04:45:43;;;;;;;14.33;8.93;;;10.60;99.90;;;;;;4996565;28;20116;-77
2022/05/06 04:48:12;;;;;;;18.40;9.63;;;10.70;99.90;;;;;;4996269;28;20034;-77
2022/05/06 04:50:41;;;;;;;17.63;9.30;;;10.60;99.90;;;;;;4980761;28;20516;-77
2022/05/06 04:53:10;;;;;;;14.53;8.60;;;10.70;99.90;;;;;;4996446;28;20568;-77
2022/05/06 04:55:38;;;;;;;16.50;9.57;;;10.70;99.90;;;;;;5014066;28;20038;-77
2022/05/06 04:58:05;;;;;;;13.60;9.18;;;10.80;99.90;;;;;;4996213;28;20029;-77
2022/05/06 05:00:33;;;;;;;16.97;10.13;;;10.80;99.90;;;;;;4996478;28;20034;-77
2022/05/06 05:03:00;;;;;;;13.97;9.30;;;10.90;99.90;;;;;;5013923;28;20065;-77
2022/05/06 05:05:27;;;;;;;15.43;9.93;;;10.90;99.90;;;;;;4996188;28;20438;-77
2022/05/06 05:07:54;;;;;;;17.43;10.37;;;11.00;99.90;;;;;;4996192;28;20300;-77
2022/05/06 05:10:21;;;;;;;16.77;10.27;;;11.00;99.90;;;;;;4996198;28;20068;-77
2022/05/06 05:12:48;;;;;;;19.70;9.80;;;10.90;99.90;;;;;;4996038;28;20025;-77
2022/05/06 05:15:17;;;;;;;16.63;9.73;;;11.00;99.90;;;;;;4996188;28;20076;-77
2022/05/06 05:17:44;;;;;;;20.25;11.32;;;11.00;99.90;;;;;;4994794;28;20068;-77
2022/05/06 05:20:11;;;;;;;20.23;10.87;;;11.10;99.90;;;;;;4979924;28;20041;-77
2022/05/06 05:22:40;;;;;;;23.05;11.73;;;11.20;99.90;;;;;;4996107;28;20560;-77
2022/05/06 05:25:10;;;;;;;16.23;11.00;;;11.20;99.90;;;;;;4995856;28;20034;-77
2022/05/06 05:27:38;;;;;;;20.60;10.10;;;11.20;99.90;;;;;;4995707;28;20088;-77
2022/05/06 05:30:09;;;;;;;19.47;11.17;;;11.20;99.90;;;;;;5013725;28;20022;-77
2022/05/06 05:32:37;;;;;;;20.50;11.70;;;11.20;99.90;;;;;;4979694;28;20049;-77
2022/05/06 05:35:05;;;;;;;16.48;10.68;;;11.30;99.90;;;;;;4995845;28;20030;-77
2022/05/06 05:37:35;;;;;;;17.43;10.77;;;11.40;99.90;;;;;;4995610;28;20324;-78
2022/05/06 05:40:05;;;;;;;17.88;11.07;;;11.40;99.90;;;;;;4995956;28;20040;-77
2022/05/06 05:42:33;;;;;;;16.13;10.83;;;11.40;99.90;;;;;;4995703;28;20058;-77
2022/05/06 05:48:19;;;;;;;27.97;12.53;;;11.60;99.90;;;;;;5009853;23;20025;-82
2022/05/06 05:50:48;;;;;;;29.43;11.67;;;11.70;99.90;;;;;;5012272;28;20030;-81
2022/05/06 05:53:17;;;;;;;20.90;10.70;;;11.70;99.90;;;;;;5013224;28;20029;-82
2022/05/06 05:55:43;;;;;;;19.17;11.43;;;11.80;99.90;;;;;;4995578;28;20040;-82
2022/05/06 05:58:17;;;;;;;17.03;10.20;;;11.80;99.90;;;;;;4995182;28;20112;-84
2022/05/06 06:00:45;;;;;;;20.63;11.40;;;11.90;99.90;;;;;;4995431;28;20032;-83
2022/05/06 06:03:12;;;;;;;20.43;10.80;;;12.00;99.90;;;;;;4995314;28;20030;-84
2022/05/06 06:05:40;;;;;;;20.50;10.97;;;12.00;99.90;;;;;;4995321;28;20038;-84
2022/05/06 06:08:06;;;;;;;22.90;11.37;;;12.10;99.90;;;;;;4994959;28;20029;-84
2022/05/06 06:10:33;;;;;;;18.20;10.57;;;12.20;99.90;;;;;;4995281;28;20030;-84
2022/05/06 06:13:04;;;;;;;24.13;11.30;;;12.20;99.90;;;;;;4995096;28;20095;-82
2022/05/06 06:15:33;;;;;;;;;;;12.30;99.90;;;;;;4995502;28;20033;-82
2022/05/06 06:18:00;;;;;;;23.40;11.73;;;12.30;99.90;;;;;;4995004;28;20341;-82
2022/05/06 06:20:27;;;;;;;25.97;11.37;;;12.40;99.90;;;;;;4994865;28;20026;-82
2022/05/06 06:22:53;;;;;;;20.57;11.63;;;12.50;99.90;;;;;;5012399;28;20030;-83
2022/05/06 06:25:19;;;;;;;17.80;10.27;;;12.50;99.90;;;;;;4994719;28;20040;-83
2022/05/06 06:27:45;;;;;;;17.83;11.33;;;12.60;99.90;;;;;;4994181;28;20141;-83
2022/05/06 06:30:13;;;;;;;22.67;12.00;;;12.70;99.90;;;;;;4994915;28;20072;-83
2022/05/06 06:32:38;;;;;;;19.27;11.97;;;12.70;99.90;;;;;;5012292;28;20429;-83
2022/05/06 06:35:07;;;;;;;19.67;11.95;;;12.80;99.90;;;;;;4978963;28;20505;-83
2022/05/06 06:37:39;;;;;;;18.63;11.57;;;12.90;99.90;;;;;;4994360;28;20042;-83
2022/05/06 06:40:06;;;;;;;21.43;12.27;;;12.90;99.90;;;;;;4994633;28;20494;-83
2022/05/06 06:42:33;;;;;;;22.10;13.07;;;13.00;99.90;;;;;;4994603;28;20427;-83
2022/05/06 06:45:31;;;;;;;21.57;12.43;;;13.00;99.90;;;;;;4985268;28;20042;-83
2022/05/06 06:48:17;;;;;;;21.80;13.57;;;13.10;99.90;;;;;;4980888;28;20033;-83
2022/05/06 06:51:12;;;;;;;19.27;12.40;;;13.00;99.90;;;;;;4994766;28;20029;-83
2022/05/06 06:53:53;;;;;;;20.70;12.23;;;13.10;99.90;;;;;;5012112;28;20521;-83
2022/05/06 06:56:20;;;;;;;19.90;13.55;;;13.20;99.90;;;;;;5012049;28;20387;-83
2022/05/06 06:58:46;;;;;;;22.55;13.15;;;13.20;99.90;;;;;;5011627;28;20033;-83
2022/05/06 07:01:11;;;;;;;18.50;11.80;;;13.20;99.90;;;;;;4994574;28;20398;-83
2022/05/06 07:03:37;;;;;;;22.60;14.35;;;13.30;99.90;;;;;;5011699;28;20034;-83
2022/05/06 07:14:17;;;;;;;23.95;14.65;;;13.40;99.50;;;;;;5011769;28;20084;-83
2022/05/06 07:16:43;;;;;;;20.35;13.32;;;13.50;99.70;;;;;;5011587;28;20068;-83
2022/05/06 07:19:09;;;;;;;20.85;12.98;;;13.50;99.70;;;;;;4993827;28;20115;-83
2022/05/06 07:21:35;;;;;;;18.05;11.95;;;13.60;99.50;;;;;;4977710;28;20508;-83
2022/05/06 07:24:01;;;;;;;19.83;13.45;;;13.60;99.40;;;;;;5011552;28;20033;-83
2022/05/06 07:26:27;;;;;;;21.83;13.55;;;13.70;99.10;;;;;;5011212;28;20052;-83
2022/05/06 07:28:53;;;;;;;19.67;12.10;;;13.70;99.00;;;;;;5011221;28;20030;-83
2022/05/06 07:31:18;;;;;;;20.55;13.05;;;13.70;99.10;;;;;;4994058;28;20037;-83
2022/05/06 07:33:47;;;;;;;21.60;13.40;;;13.80;99.00;;;;;;5011414;28;20057;-82
2022/05/06 07:36:13;;;;;;;17.98;12.07;;;13.80;98.80;;;;;;4994036;28;20104;-83
2022/05/06 07:38:39;;;;;;;24.42;13.77;;;13.90;98.70;;;;;;4993614;28;20505;-83
2022/05/06 07:41:04;;;;;;;23.95;14.98;;;13.90;98.60;;;;;;4993097;28;20030;-83
2022/05/06 07:43:30;;;;;;;21.38;15.15;;;14.00;98.70;;;;;;5011353;28;20054;-83
2022/05/06 07:45:56;;;;;;;20.85;13.48;;;14.00;98.40;;;;;;5011283;28;20037;-83
2022/05/06 07:48:22;;;;;;;19.85;12.85;;;14.10;98.40;;;;;;5010833;28;20498;-83
2022/05/06 07:50:48;;;;;;;18.95;13.48;;;14.10;98.50;;;;;;5011129;28;20037;-83
2022/05/06 07:53:15;;;;;;;18.92;12.48;;;14.10;98.40;;;;;;5011173;28;20026;-83
2022/05/06 07:55:42;;;;;;;20.60;13.50;;;14.20;98.20;;;;;;5011192;28;20030;-83
2022/05/06 07:58:08;;;;;;;19.30;12.95;;;14.30;98.10;;;;;;5011057;28;20029;-83
2022/05/06 08:00:34;;;;;;;22.80;13.30;;;14.30;97.90;;;;;;4977532;28;20038;-83
2022/05/06 08:05:49;;;;;;;18.15;11.27;;;14.40;97.70;;;;;;5011028;28;20034;-83
2022/05/06 08:08:16;;;;;;;17.15;11.00;;;14.40;97.50;;;;;;4993138;28;20036;-83
2022/05/06 08:10:42;;;;;;;17.98;11.05;;;14.50;97.40;;;;;;4993601;28;20034;-83
2022/05/06 08:13:08;;;;;;;17.05;11.80;;;14.50;97.40;;;;;;4977467;28;20489;-83
2022/05/06 08:15:34;;;;;;;19.10;11.25;;;14.50;97.30;;;;;;5011091;28;20037;-83
2022/05/06 08:18:00;;;;;;;16.88;10.60;;;14.50;97.30;;;;;;5010624;28;20394;-83
2022/05/06 08:20:25;;;;;;;21.83;12.25;;;14.50;97.20;;;;;;4993520;28;20033;-83
2022/05/06 08:22:51;;;;;;;16.00;11.10;;;14.60;97.00;;;;;;5010953;28;20034;-82
2022/05/06 08:25:17;;;;;;;19.58;12.43;;;14.60;96.90;;;;;;4993390;28;20038;-83
2022/05/06 08:27:44;;;;;;;26.05;15.07;;;14.70;96.90;;;;;;5010631;28;20026;-83
2022/05/06 08:30:12;;;;;;;22.00;13.90;;;14.80;96.90;;;;;;5010951;28;20030;-83
2022/05/06 08:32:41;;;;;;;20.17;12.17;;;14.90;96.60;;;;;;4976977;28;20034;-83
2022/05/06 08:35:07;;;;;;;16.77;11.43;;;14.90;96.40;;;;;;4993474;28;20034;-83
2022/05/06 08:37:47;;;;;;;23.15;13.75;;;15.00;96.50;;;;;;5010626;28;20034;-83
2022/05/06 08:40:28;;;;;;;24.05;14.57;;;15.00;96.40;;;;;;4993266;28;20034;-83
2022/05/06 08:42:57;;;;;;;22.73;14.32;;;15.20;95.70;;;;;;5010507;28;20084;-82
2022/05/06 08:51:07;;;;;;;26.30;14.98;;;15.20;95.90;;;;;;4967414;28;20038;-83
2022/05/06 08:53:36;;;;;;;27.67;14.80;;;15.30;95.90;;;;;;5014026;28;20032;-83
2022/05/06 08:56:03;;;;;;;23.33;15.30;;;15.40;95.70;;;;;;5014298;28;20034;-83
2022/05/06 08:58:34;;;;;;;26.77;14.50;;;15.50;94.90;;;;;;5013808;28;20414;-83
2022/05/06 09:01:10;;;;;;;22.08;13.95;;;15.60;94.60;;;;;;5014224;28;20038;-83
2022/05/06 09:03:40;;;;;;;21.17;12.80;;;15.60;94.20;;;;;;5013886;28;20061;-83
2022/05/06 09:06:20;;;;;;;25.25;13.60;;;15.60;94.30;;;;;;5013765;28;20034;-83
2022/05/06 09:08:47;;;;;;;28.20;14.73;;;15.60;94.60;;;;;;5013667;28;20025;-83
2022/05/06 09:11:13;;;;;;;22.85;13.20;;;15.60;94.50;;;;;;5013850;28;20109;-83
2022/05/06 09:13:51;;;;;;;27.08;15.77;;;15.60;94.30;;;;;;4996200;28;20371;-83
2022/05/06 09:16:40;;;;;;;24.73;13.80;;;15.70;94.40;;;;;;5013832;28;20091;-83
2022/05/06 09:19:10;;;;;;;23.02;13.50;;;15.70;94.40;;;;;;5013958;28;20026;-83
2022/05/06 09:21:36;;;;;;;28.75;13.73;;;15.70;94.50;;;;;;5013643;28;20038;-83
2022/05/06 09:24:19;;;;;;;25.83;14.27;;;15.60;94.70;;;;;;5013705;28;20433;-83
2022/05/06 09:27:06;;;;;;;30.58;15.02;;;15.70;95.10;;;;;;5013247;28;20116;-83
2022/05/06 09:29:43;;;;;;;26.17;13.48;;;15.90;93.70;;;;;;4996014;28;20113;-83
2022/05/06 09:32:17;;;;;;;26.15;13.80;;;16.00;92.40;;;;;;5013534;28;20025;-83
2022/05/06 09:34:44;;;;;;;26.65;14.90;;;16.10;92.50;;;;;;5013396;28;20432;-83
2022/05/06 09:37:09;;;;;;;25.20;13.50;;;16.20;92.70;;;;;;5013192;28;20393;-83
2022/05/06 09:39:38;;;;;;;23.80;14.43;;;16.20;92.30;;;;;;4995866;28;20022;-83
2022/05/06 09:42:06;;;;;;;23.63;13.65;;;16.30;92.60;;;;;;5013289;28;20034;-83
2022/05/06 09:44:35;;;;;;;26.63;14.73;;;16.30;92.40;;;;;;4979615;28;20402;-83
2022/05/06 09:47:09;;;;;;;24.00;12.82;;;16.40;92.00;;;;;;5012958;28;20030;-83
2022/05/06 09:49:42;;;;;;;30.27;18.58;;;16.50;91.70;;;;;;5012807;28;20084;-83
2022/05/06 09:52:09;;;;;;;30.75;17.80;;;16.50;92.40;;;;;;5012845;28;20026;-83
2022/05/06 09:54:35;;;;;;;31.27;19.75;;;16.50;92.40;;;;;;5013163;28;20068;-83
2022/05/06 09:57:06;;;;;;;31.98;18.20;;;16.60;92.20;;;;;;5012917;28;20030;-83
2022/05/06 09:59:32;;;;;;;27.50;17.38;;;16.60;92.60;;;;;;4995353;28;20029;-83
2022/05/06 10:01:58;;;;;;;27.80;17.88;;;16.60;92.90;;;;;;5012927;28;20406;-83
2022/05/06 10:04:27;;;;;;;29.50;18.67;;;16.50;93.30;;;;;;5012146;28;20029;-83
2022/05/06 10:06:57;;;;;;;34.08;21.27;;;16.60;93.40;;;;;;5012837;28;20030;-83
2022/05/06 10:09:24;;;;;;;29.15;19.33;;;16.80;92.30;;;;;;4995476;28;20438;-83
2022/05/06 10:11:52;;;;;;;31.98;20.20;;;16.70;92.30;;;;;;5012840;28;20026;-83
2022/05/06 10:14:18;;;;;;;31.45;21.83;;;16.70;93.00;;;;;;5012766;28;20022;-83
2022/05/06 10:16:44;;;;;;;30.77;20.52;;;16.70;93.40;;;;;;5012434;28;20083;-83
2022/05/06 10:19:49;;;;;;;37.45;20.95;;;16.70;93.70;;;;;;5012789;28;20034;-83
2022/05/06 10:22:15;;;;;;;30.70;20.23;;;16.70;93.30;;;;;;4985388;28;20474;-83
2022/05/06 10:24:50;;;;;;;30.92;19.23;;;16.70;93.20;;;;;;5012423;28;20109;-83
2022/05/06 10:33:18;;;;;;;27.70;18.38;;;16.50;93.30;;;;;;4994743;28;20398;-83
2022/05/06 10:35:47;;;;;;;26.63;17.20;;;16.40;93.20;;;;;;5012580;28;20470;-83
2022/05/06 10:38:22;;;;;;;30.90;17.75;;;16.40;92.90;;;;;;4994397;28;20033;-83
2022/05/06 10:41:11;;;;;;;28.95;17.75;;;16.30;93.20;;;;;;4994735;28;20065;-83
2022/05/06 10:43:39;;;;;;;24.58;17.02;;;16.20;93.70;;;;;;5012296;28;20099;-83
2022/05/06 10:46:05;;;;;;;33.85;18.55;;;16.10;93.80;;;;;;5012188;28;20036;-83
2022/05/06 10:48:31;;;;;;;33.72;20.25;;;16.20;93.90;;;;;;4994016;28;20034;-83
2022/05/06 10:51:19;;;;;;;29.88;18.77;;;16.40;93.70;;;;;;5012256;28;20026;-83
2022/05/06 10:53:45;;;;;;;27.35;16.95;;;16.50;93.50;;;;;;5012267;28;20107;-84
2022/05/06 10:56:12;;;;;;;30.10;18.52;;;16.50;93.10;;;;;;5011815;28;20037;-83
2022/05/06 10:58:38;;;;;;;31.00;18.13;;;16.60;92.80;;;;;;5011567;28;20056;-83
2022/05/06 11:01:04;;;;;;;30.92;18.67;;;16.60;92.50;;;;;;5012195;28;20048;-83
2022/05/06 11:03:30;;;;;;;27.25;17.55;;;16.60;92.60;;;;;;5011858;28;20497;-83
2022/05/06 11:05:55;;;;;;;35.47;18.85;;;16.60;92.90;;;;;;5011784;28;20432;-83
2022/05/06 11:08:32;;;;;;;30.67;16.88;;;16.60;93.10;;;;;;5011636;28;20564;-83
2022/05/06 11:10:58;;;;;;;28.42;16.63;;;16.60;92.90;;;;;;5011682;28;20030;-84
2022/05/06 11:13:25;;;;;;;28.83;18.48;;;16.60;92.70;;;;;;5011578;28;20037;-84
2022/05/06 11:15:52;;;;;;;25.38;15.60;;;16.50;93.30;;;;;;5011581;28;20033;-83
2022/05/06 11:18:19;;;;;;;28.83;18.08;;;16.50;92.90;;;;;;4977328;28;20375;-83
2022/05/06 11:20:45;;;;;;;31.40;19.35;;;16.50;92.90;;;;;;5011596;28;20036;-83
2022/05/06 11:23:14;;;;;;;28.67;19.23;;;16.70;92.80;;;;;;4993696;28;20457;-83
2022/05/06 11:25:45;;;;;;;29.88;17.60;;;16.80;92.40;;;;;;5011354;28;20038;-83
2022/05/06 11:28:21;;;;;;;27.35;16.63;;;17.00;91.50;;;;;;5011342;28;20037;-83
2022/05/06 11:30:49;;;;;;;23.15;15.10;;;17.00;91.60;;;;;;4994072;28;20552;-83
2022/05/06 11:33:27;;;;;;;23.25;14.93;;;17.00;91.40;;;;;;5011295;28;20550;-83
2022/05/06 11:36:06;;;;;;;34.22;23.38;;;16.90;91.90;;;;;;5011359;28;20040;-83
2022/05/06 11:38:38;;;;;;;33.30;19.30;;;16.90;92.20;;;;;;5011184;28;20121;-84
2022/05/06 11:41:11;;;;;;;28.20;17.83;;;16.90;91.90;;;;;;5011463;28;20552;-84
2022/05/06 11:43:39;;;;;;;26.83;17.05;;;16.90;91.70;;;;;;5011264;28;20458;-83
2022/05/06 11:48:50;;;;;;;34.30;21.80;;;17.10;92.20;;;;;;5050847;23;20056;-77
2022/05/06 11:51:25;;;;;;;29.23;19.48;;;17.20;91.70;;;;;;5011415;28;20042;-78
2022/05/06 11:53:52;;;;;;;30.38;19.50;;;17.20;91.80;;;;;;5011235;28;20075;-77
2022/05/06 11:56:26;;;;;;;27.33;17.60;;;17.10;91.60;;;;;;5011241;28;20113;-78
2022/05/06 11:58:55;;;;;;;20.83;15.13;;;17.10;91.20;;;;;;5010842;28;20038;-77
2022/05/06 12:01:32;;;;;;;27.48;17.38;;;17.20;90.70;;;;;;5010903;28;20048;-78
2022/05/06 12:04:09;;;;;;;29.80;18.35;;;17.30;90.70;;;;;;5011170;28;20036;-78
2022/05/06 12:06:38;;;;;;;31.95;20.70;;;17.40;90.90;;;;;;4993230;28;20034;-78
2022/05/06 12:09:10;;;;;;;33.05;21.92;;;17.50;91.20;;;;;;5010975;28;20391;-77
2022/05/06 12:11:36;;;;;;;32.47;21.05;;;17.70;91.90;;;;;;5010828;28;20029;-78
2022/05/06 12:14:15;;;;;;;34.88;23.58;;;17.80;91.80;;;;;;5011102;28;20026;-78
2022/05/06 12:16:57;;;;;;;36.42;21.42;;;18.00;91.20;;;;;;5010802;28;20080;-77
2022/05/06 12:19:36;;;;;;;35.65;19.98;;;18.10;90.50;;;;;;5010751;28;20046;-77
2022/05/06 12:22:06;;;;;;;;;;;18.20;90.10;;;;;;5011191;28;20029;-78
2022/05/06 12:24:41;;;;;;;32.92;20.52;;;18.10;90.40;;;;;;5010864;28;20332;-78
2022/05/06 12:27:08;;;;;;;26.52;17.55;;;18.20;90.10;;;;;;4995230;28;20030;-77
2022/05/06 12:29:39;;;;;;;33.72;20.58;;;18.10;89.30;;;;;;5014427;28;20056;-77
2022/05/06 12:32:06;;;;;;;27.17;17.55;;;18.20;89.50;;;;;;5014357;28;20026;-78
2022/05/06 12:34:33;;;;;;;28.48;18.70;;;18.20;88.90;;;;;;4996841;28;20026;-78
2022/05/06 12:37:12;;;;;;;25.20;16.15;;;18.20;89.20;;;;;;5014318;28;20448;-77
2022/05/06 12:39:45;;;;;;;29.20;17.85;;;18.30;88.90;;;;;;5014138;28;20054;-77
2022/05/06 12:42:15;;;;;;;25.65;17.52;;;18.30;88.10;;;;;;5014124;28;20046;-78
2022/05/06 12:44:43;;;;;;;24.55;16.45;;;18.50;86.50;;;;;;5014759;28;20060;-77
2022/05/06 12:50:10;;;;;;;24.77;16.65;;;18.40;85.00;;;;;;4993367;28;20125;-77
2022/05/06 12:52:36;;;;;;;25.65;16.60;;;18.30;86.60;;;;;;5014131;28;20541;-78
2022/05/06 12:55:04;;;;;;;26.08;16.63;;;18.30;86.00;;;;;;5013932;28;20029;-78
2022/05/06 12:57:30;;;;;;;26.00;16.67;;;18.40;86.10;;;;;;5013972;28;20092;-77
2022/05/06 12:59:55;;;;;;;24.35;15.30;;;18.40;85.70;;;;;;5014239;28;20425;-78
2022/05/06 13:02:21;;;;;;;28.52;16.35;;;18.50;85.90;;;;;;5013925;28;20034;-77
2022/05/06 13:04:47;;;;;;;23.80;15.77;;;18.60;84.20;;;;;;5013955;28;20084;-78
2022/05/06 13:07:16;;;;;;;27.42;16.08;;;18.70;83.80;;;;;;5013817;28;20116;-78
2022/05/06 13:09:42;;;;;;;21.83;15.15;;;18.90;82.90;;;;;;5013753;28;20084;-78
2022/05/06 13:12:09;;;;;;;21.02;14.52;;;18.90;82.30;;;;;;5013800;28;20502;-77
2022/05/06 13:14:35;;;;;;;23.02;15.75;;;19.00;81.80;;;;;;5013959;28;20122;-78
2022/05/06 13:17:01;;;;;;;25.45;16.48;;;19.00;81.50;;;;;;5013592;28;20038;-77
2022/05/06 13:19:29;;;;;;;25.33;16.25;;;19.00;82.60;;;;;;5013711;28;20088;-77
2022/05/06 13:21:55;;;;;;;21.65;15.23;;;18.90;82.80;;;;;;5013566;28;20018;-77
2022/05/06 13:24:23;;;;;;;27.05;16.63;;;18.90;83.60;;;;;;5013496;28;20053;-78
2022/05/06 13:26:48;;;;;;;25.95;16.58;;;18.90;82.90;;;;;;5013352;28;20026;-78
2022/05/06 13:29:14;;;;;;;23.73;15.35;;;18.80;83.50;;;;;;5013427;28;20045;-77
2022/05/06 13:31:40;;;;;;;22.35;15.05;;;18.70;83.20;;;;;;5013558;28;20109;-77
2022/05/06 13:34:06;;;;;;;22.58;16.02;;;18.70;81.90;;;;;;5013438;28;20437;-78